Time;durP1;ratioP1;P1;durP2;ratioP2;P2;SDS_P1;SDS_P2;PMS_P1;PMS_P2;Temp;Humidity;BMP_temperature;BMP_pressure;BME280_temperature;BME280_humidity;BME280_pressure;Samples;Min_cycle;Max_cycle;Signal;HPM_P1;HPM_P2
2022/05/22 00:01:40;;;;;;;18.88;6.70;;;10.10;99.90;;;;;;5078043;27;20054;-79
2022/05/22 00:04:06;;;;;;;20.70;6.07;;;10.20;99.90;;;;;;5095147;27;20035;-80
2022/05/22 00:06:32;;;;;;;14.35;5.30;;;10.10;99.90;;;;;;5104545;27;20034;-80
2022/05/22 00:08:58;;;;;;;13.70;5.05;;;10.10;99.90;;;;;;5113503;27;20041;-79
2022/05/22 00:11:23;;;;;;;10.45;4.72;;;10.30;99.90;;;;;;5094505;27;20406;-80
2022/05/22 00:13:50;;;;;;;12.15;5.13;;;10.10;99.90;;;;;;5111549;27;20621;-80
2022/05/22 00:19:00;;;;;;;14.93;4.60;;;10.00;99.90;;;;;;5115191;27;20130;-81
2022/05/22 00:21:26;;;;;;;19.13;4.90;;;10.40;99.90;;;;;;5095916;27;20130;-81
2022/05/22 00:23:52;;;;;;;14.65;4.57;;;10.00;99.90;;;;;;5094838;27;20134;-80
2022/05/22 00:26:18;;;;;;;12.27;5.13;;;10.10;99.90;;;;;;5096832;27;20460;-81
2022/05/22 00:28:44;;;;;;;18.40;5.65;;;9.90;99.90;;;;;;5103690;27;20126;-81
2022/05/22 00:31:10;;;;;;;15.13;4.85;;;10.60;99.90;;;;;;5097513;27;20035;-80
2022/05/22 00:33:35;;;;;;;18.92;5.07;;;10.00;99.90;;;;;;5097846;27;21234;-81
2022/05/22 00:36:02;;;;;;;16.88;5.47;;;9.90;99.90;;;;;;5098611;27;20050;-80
2022/05/22 00:38:28;;;;;;;10.52;5.00;;;9.80;99.90;;;;;;5095011;27;20088;-81
2022/05/22 00:40:54;;;;;;;15.88;5.05;;;9.80;99.90;;;;;;5099955;27;20823;-81
2022/05/22 00:43:35;;;;;;;12.35;5.07;;;9.80;99.90;;;;;;5112853;27;20043;-80
2022/05/22 00:46:02;;;;;;;18.40;5.70;;;9.80;99.90;;;;;;5100523;27;20034;-80
2022/05/22 00:48:28;;;;;;;14.05;5.28;;;9.80;99.90;;;;;;5123466;27;20119;-80
2022/05/22 00:51:03;;;;;;;9.52;5.15;;;9.70;99.90;;;;;;5105064;27;20043;-81
2022/05/22 00:53:32;;;;;;;16.58;5.25;;;9.70;99.90;;;;;;5119748;27;20077;-80
2022/05/22 00:56:01;;;;;;;14.68;5.40;;;10.30;99.90;;;;;;5128663;27;20039;-78
2022/05/22 00:58:29;;;;;;;14.93;5.43;;;9.70;99.90;;;;;;5108230;27;20051;-78
2022/05/22 01:00:55;;;;;;;13.48;5.82;;;10.20;99.90;;;;;;5099656;27;20621;-80
2022/05/22 01:03:26;;;;;;;8.90;5.18;;;10.50;99.90;;;;;;5102444;27;20024;-79
2022/05/22 01:05:56;;;;;;;12.70;4.95;;;10.00;99.90;;;;;;5116279;27;20104;-80
2022/05/22 01:08:23;;;;;;;11.07;4.50;;;9.60;99.90;;;;;;5118008;27;20065;-80
2022/05/22 01:10:54;;;;;;;8.52;4.65;;;9.60;99.90;;;;;;5101706;27;20087;-80
2022/05/22 01:13:29;;;;;;;11.52;5.00;;;9.60;99.90;;;;;;5100076;27;20442;-79
2022/05/22 01:15:55;;;;;;;11.55;4.57;;;9.70;99.90;;;;;;5087531;27;20488;-80
2022/05/22 01:18:21;;;;;;;10.38;5.43;;;9.50;99.90;;;;;;5107297;27;20107;-80
2022/05/22 01:20:48;;;;;;;11.23;5.63;;;9.50;99.90;;;;;;5100675;27;20062;-80
2022/05/22 01:23:14;;;;;;;13.73;5.35;;;9.50;99.90;;;;;;5097364;27;20042;-81
2022/05/22 01:25:40;;;;;;;16.13;5.70;;;9.50;99.90;;;;;;5122466;27;20148;-82
2022/05/22 01:28:08;;;;;;;18.17;5.65;;;9.50;99.90;;;;;;5097472;27;20031;-81
2022/05/22 01:30:33;;;;;;;13.93;5.82;;;9.60;99.90;;;;;;5115752;27;20203;-81
2022/05/22 01:32:59;;;;;;;9.25;5.07;;;9.40;99.90;;;;;;5106690;27;20047;-80
2022/05/22 01:35:27;;;;;;;16.02;5.57;;;9.70;99.90;;;;;;5096480;27;20031;-82
2022/05/22 01:37:55;;;;;;;12.07;5.00;;;9.30;99.90;;;;;;5097207;27;20140;-81
2022/05/22 01:40:21;;;;;;;11.85;5.05;;;9.40;99.90;;;;;;5102959;27;20064;-80
2022/05/22 01:42:47;;;;;;;13.15;4.95;;;9.20;99.90;;;;;;5109548;27;20039;-81
2022/05/22 01:45:17;;;;;;;13.63;5.25;;;9.20;99.90;;;;;;5096844;27;20434;-81
2022/05/22 01:47:43;;;;;;;9.32;5.03;;;9.20;99.90;;;;;;5135498;27;20033;-81
2022/05/22 01:50:10;;;;;;;9.00;5.05;;;9.10;99.90;;;;;;5099230;27;20389;-81
2022/05/22 01:52:36;;;;;;;9.20;4.80;;;9.20;99.90;;;;;;5114854;27;20054;-82
2022/05/22 01:55:01;;;;;;;10.95;4.95;;;9.70;99.90;;;;;;5116330;27;20139;-82
2022/05/22 01:57:29;;;;;;;18.65;6.50;;;9.20;99.90;;;;;;5118265;27;20054;-81
2022/05/22 01:59:55;;;;;;;15.95;6.15;;;9.10;99.90;;;;;;5135260;27;20039;-80
2022/05/22 02:02:22;;;;;;;12.45;5.80;;;9.80;99.90;;;;;;5097497;27;20047;-81
2022/05/22 02:04:48;;;;;;;15.60;5.55;;;9.20;99.90;;;;;;5119235;27;20729;-82
2022/05/22 02:10:11;;;;;;;13.10;4.78;;;9.90;99.90;;;;;;5031157;28;20044;-81
2022/05/22 02:12:37;;;;;;;14.30;5.10;;;9.80;99.90;;;;;;5048194;28;20041;-80
2022/05/22 02:15:03;;;;;;;12.80;5.15;;;9.20;99.90;;;;;;5030754;28;20045;-81
2022/05/22 02:17:28;;;;;;;16.70;5.50;;;9.10;99.90;;;;;;5046519;28;20151;-81
2022/05/22 02:19:54;;;;;;;16.05;5.97;;;9.10;99.90;;;;;;5050592;28;20077;-81
2022/05/22 02:22:20;;;;;;;11.70;6.00;;;9.90;99.90;;;;;;5051715;28;20041;-77
2022/05/22 02:24:53;;;;;;;13.35;6.13;;;9.30;99.90;;;;;;5045301;28;20430;-78
2022/05/22 02:27:19;;;;;;;16.48;6.20;;;9.70;99.90;;;;;;5025155;28;20053;-80
2022/05/22 02:29:48;;;;;;;11.85;5.82;;;9.70;99.90;;;;;;5046244;28;20047;-79
2022/05/22 02:32:14;;;;;;;16.33;6.80;;;9.20;99.90;;;;;;5011279;28;20048;-80
2022/05/22 02:34:39;;;;;;;9.80;5.97;;;9.10;99.90;;;;;;5033256;28;20116;-80
2022/05/22 02:37:06;;;;;;;13.30;5.93;;;9.10;99.90;;;;;;5033168;28;20045;-79
2022/05/22 02:39:32;;;;;;;14.88;6.35;;;9.00;99.90;;;;;;5017222;28;20420;-80
2022/05/22 02:42:02;;;;;;;11.13;5.90;;;9.00;99.90;;;;;;5032866;28;20041;-80
2022/05/22 02:44:28;;;;;;;11.18;5.63;;;9.00;99.90;;;;;;5031712;28;20581;-80
2022/05/22 02:46:54;;;;;;;13.73;5.40;;;9.00;99.90;;;;;;5109133;27;20047;-80
2022/05/22 02:49:19;;;;;;;12.63;5.57;;;8.90;99.90;;;;;;5098273;27;20383;-80
2022/05/22 02:51:45;;;;;;;10.80;4.97;;;9.20;99.90;;;;;;5123579;27;20039;-80
2022/05/22 02:54:10;;;;;;;8.13;5.00;;;8.90;99.90;;;;;;5126691;27;20118;-80
2022/05/22 02:56:36;;;;;;;8.77;4.95;;;8.80;99.90;;;;;;5114663;27;20043;-80
2022/05/22 02:59:02;;;;;;;13.85;5.22;;;8.80;99.90;;;;;;5121653;27;20045;-81
2022/05/22 03:01:27;;;;;;;11.02;5.22;;;8.70;99.90;;;;;;5110086;27;20369;-80
2022/05/22 03:03:53;;;;;;;11.02;5.38;;;9.20;99.90;;;;;;5135425;27;20122;-80
2022/05/22 03:09:04;;;;;;;9.25;5.35;;;8.80;99.90;;;;;;5131892;27;20061;-80
2022/05/22 03:11:36;;;;;;;8.65;5.05;;;8.70;99.90;;;;;;5127454;27;20035;-80
2022/05/22 03:14:02;;;;;;;9.27;5.00;;;8.70;99.90;;;;;;5122375;27;20114;-79
2022/05/22 03:16:28;;;;;;;9.27;5.18;;;8.80;99.90;;;;;;5115937;27;20050;-80
2022/05/22 03:18:54;;;;;;;10.98;5.55;;;8.70;99.90;;;;;;5122150;27;20125;-81
2022/05/22 03:21:20;;;;;;;12.13;5.38;;;8.60;99.90;;;;;;5126507;27;20078;-81
2022/05/22 03:23:46;;;;;;;11.80;5.70;;;8.60;99.90;;;;;;5114914;27;20414;-81
2022/05/22 03:26:11;;;;;;;13.00;5.95;;;8.80;99.90;;;;;;5128265;27;20440;-80
2022/05/22 03:28:37;;;;;;;14.05;6.40;;;8.70;99.90;;;;;;5106663;27;20050;-81
2022/05/22 03:31:03;;;;;;;13.95;6.03;;;8.60;99.90;;;;;;5122531;27;20039;-81
2022/05/22 03:33:29;;;;;;;8.32;5.65;;;8.70;99.90;;;;;;5108280;27;20050;-81
2022/05/22 03:35:54;;;;;;;12.85;5.90;;;8.60;99.90;;;;;;5115050;27;20377;-80
2022/05/22 03:38:20;;;;;;;10.00;5.57;;;8.60;99.90;;;;;;5105218;27;20039;-80
2022/05/22 03:40:47;;;;;;;11.18;5.60;;;8.60;99.90;;;;;;5115237;27;20539;-80
2022/05/22 03:43:17;;;;;;;10.02;5.07;;;8.60;99.90;;;;;;5097346;27;20982;-80
2022/05/22 03:45:43;;;;;;;11.95;5.38;;;8.70;99.90;;;;;;5098802;27;20035;-80
2022/05/22 03:48:09;;;;;;;11.07;5.10;;;8.70;99.90;;;;;;5117109;27;20054;-80
2022/05/22 03:50:35;;;;;;;9.55;5.22;;;9.10;99.90;;;;;;5122961;27;20041;-79
2022/05/22 03:53:00;;;;;;;12.32;4.80;;;8.70;99.90;;;;;;5104855;27;20038;-79
2022/05/22 03:55:26;;;;;;;10.23;4.63;;;8.70;99.90;;;;;;5105495;27;20050;-80
2022/05/22 03:57:52;;;;;;;9.35;4.30;;;8.80;99.90;;;;;;5099482;27;20198;-80
2022/05/22 04:00:21;;;;;;;7.35;4.20;;;8.70;99.90;;;;;;5104139;27;20071;-80
2022/05/22 04:02:47;;;;;;;7.85;4.28;;;8.70;99.90;;;;;;5101032;27;20039;-81
2022/05/22 04:05:13;;;;;;;8.93;4.45;;;8.80;99.90;;;;;;5098228;27;20110;-80
2022/05/22 04:07:44;;;;;;;8.20;4.57;;;8.80;99.90;;;;;;5096005;27;20054;-80
2022/05/22 04:10:11;;;;;;;8.55;4.82;;;8.80;99.90;;;;;;5096585;27;20063;-81
2022/05/22 04:12:39;;;;;;;6.75;4.40;;;8.90;99.90;;;;;;5113655;27;20418;-80
2022/05/22 04:15:08;;;;;;;9.18;4.80;;;9.00;99.90;;;;;;5118198;27;20130;-80
2022/05/22 04:17:34;;;;;;;8.77;4.65;;;9.10;99.90;;;;;;5099373;27;20125;-80
2022/05/22 04:20:00;;;;;;;9.35;4.78;;;9.20;99.90;;;;;;5132727;27;20095;-81
2022/05/22 04:22:26;;;;;;;9.63;5.00;;;9.20;99.90;;;;;;5112644;27;20034;-81
2022/05/22 04:27:38;;;;;;;14.23;5.20;;;9.40;99.90;;;;;;5114994;27;20042;-81
2022/05/22 04:30:04;;;;;;;9.80;4.97;;;9.50;99.90;;;;;;5104107;27;20104;-81
2022/05/22 04:32:30;;;;;;;12.00;5.10;;;9.50;99.90;;;;;;5113212;27;20214;-81
2022/05/22 04:34:55;;;;;;;12.15;5.40;;;9.50;99.90;;;;;;5120872;27;20421;-81
2022/05/22 04:37:21;;;;;;;10.07;5.10;;;9.60;99.90;;;;;;5108333;27;20023;-81
2022/05/22 04:39:47;;;;;;;14.43;5.60;;;9.60;99.90;;;;;;5101523;27;20031;-82
2022/05/22 04:42:13;;;;;;;10.65;5.18;;;9.70;99.90;;;;;;5101790;27;20099;-79
2022/05/22 04:44:38;;;;;;;13.88;6.25;;;9.80;99.90;;;;;;5098921;27;20046;-80
2022/05/22 04:47:04;;;;;;;11.60;5.70;;;9.80;99.90;;;;;;5122055;27;20108;-78
2022/05/22 04:49:52;;;;;;;12.07;5.30;;;9.80;99.90;;;;;;5120057;27;20031;-79
2022/05/22 04:52:17;;;;;;;14.57;5.63;;;10.00;99.90;;;;;;5098817;27;20399;-80
2022/05/22 04:54:43;;;;;;;12.48;5.40;;;10.00;99.90;;;;;;5119502;27;20139;-81
2022/05/22 04:57:09;;;;;;;13.27;5.82;;;10.00;99.90;;;;;;5102658;27;20062;-81
2022/05/22 04:59:34;;;;;;;12.20;5.80;;;10.20;99.90;;;;;;5121499;27;20200;-80
2022/05/22 05:02:01;;;;;;;14.70;6.18;;;10.70;99.90;;;;;;5119328;27;20039;-81
2022/05/22 05:04:27;;;;;;;14.65;6.57;;;10.40;99.90;;;;;;5097781;27;20035;-80
2022/05/22 05:06:53;;;;;;;24.55;6.78;;;10.50;99.90;;;;;;5097666;27;20035;-81
2022/05/22 05:09:19;;;;;;;19.92;7.20;;;10.50;99.90;;;;;;5102453;27;20095;-81
2022/05/22 05:11:44;;;;;;;22.38;6.95;;;10.60;99.90;;;;;;5099133;27;20061;-81
2022/05/22 05:14:10;;;;;;;18.38;5.95;;;11.10;99.90;;;;;;5120777;27;20034;-80
2022/05/22 05:16:36;;;;;;;16.25;6.78;;;10.70;99.90;;;;;;5094030;28;20489;-82
2022/05/22 05:19:02;;;;;;;17.05;6.38;;;11.30;99.90;;;;;;5121889;27;20043;-80
2022/05/22 05:21:28;;;;;;;21.25;6.30;;;10.90;99.90;;;;;;5116499;27;20051;-78
2022/05/22 05:23:55;;;;;;;18.08;6.65;;;11.00;99.90;;;;;;5129665;27;20054;-79
2022/05/22 05:26:22;;;;;;;17.88;6.10;;;11.00;99.90;;;;;;5115062;27;20058;-82
2022/05/22 05:28:48;;;;;;;15.63;6.50;;;11.70;99.90;;;;;;5099544;27;20390;-82
2022/05/22 05:31:14;;;;;;;17.30;6.40;;;11.10;99.90;;;;;;5101166;27;20061;-81
2022/05/22 05:33:40;;;;;;;19.33;6.50;;;11.10;99.90;;;;;;5097769;27;20051;-82
2022/05/22 05:36:10;;;;;;;14.63;6.50;;;11.20;99.90;;;;;;5113729;27;20131;-81
2022/05/22 05:38:36;;;;;;;16.65;6.60;;;11.30;99.90;;;;;;5097215;28;20115;-82
2022/05/22 05:41:02;;;;;;;16.95;6.80;;;11.30;99.90;;;;;;5113933;27;20105;-81
2022/05/22 05:43:28;;;;;;;20.08;7.72;;;11.40;99.90;;;;;;5134599;27;20054;-82
2022/05/22 05:45:54;;;;;;;19.30;7.32;;;11.50;99.90;;;;;;5118467;27;20046;-82
2022/05/22 05:48:19;;;;;;;22.45;7.88;;;11.50;99.90;;;;;;5119567;27;20133;-81
2022/05/22 05:50:45;;;;;;;18.85;8.25;;;11.80;99.90;;;;;;5121433;27;20599;-82
2022/05/22 05:53:11;;;;;;;23.25;8.43;;;11.60;99.90;;;;;;5132994;27;20177;-81
2022/05/22 05:55:37;;;;;;;31.92;9.35;;;12.10;99.90;;;;;;5125010;27;20049;-82
2022/05/22 05:58:03;;;;;;;22.20;8.98;;;11.70;99.90;;;;;;5102101;27;20039;-81
2022/05/22 06:00:29;;;;;;;30.08;9.90;;;11.90;99.90;;;;;;5136256;27;20061;-83
2022/05/22 06:02:55;;;;;;;27.73;10.07;;;12.00;99.90;;;;;;5120463;27;20042;-81
2022/05/22 06:05:21;;;;;;;18.85;8.40;;;12.50;99.90;;;;;;5137976;27;20106;-81
2022/05/22 06:07:51;;;;;;;18.48;7.20;;;12.20;99.90;;;;;;5135419;27;20031;-80
2022/05/22 06:10:19;;;;;;;22.42;8.02;;;12.40;99.90;;;;;;5104010;27;20099;-82
2022/05/22 06:12:46;;;;;;;22.10;6.25;;;12.80;99.90;;;;;;5120742;27;20047;-81
2022/05/22 06:15:13;;;;;;;14.20;3.92;;;13.00;99.90;;;;;;5136713;27;20026;-81
2022/05/22 06:17:46;;;;;;;26.33;7.22;;;13.50;99.90;;;;;;5099680;27;20381;-79
2022/05/22 06:20:15;;;;;;;22.55;7.85;;;13.60;99.90;;;;;;5116902;27;20183;-80
2022/05/22 06:22:44;;;;;;;16.98;5.60;;;13.70;99.90;;;;;;5115294;27;20095;-79
2022/05/22 06:25:15;;;;;;;22.52;6.85;;;13.80;99.90;;;;;;5101507;27;20489;-82
2022/05/22 06:27:43;;;;;;;22.33;6.38;;;14.00;99.90;;;;;;5130249;27;20221;-81
2022/05/22 06:30:12;;;;;;;22.33;7.20;;;13.70;99.90;;;;;;5118023;27;20086;-82
2022/05/22 06:32:41;;;;;;;26.88;6.35;;;14.10;99.90;;;;;;5113065;27;20218;-81
2022/05/22 06:35:10;;;;;;;18.33;5.43;;;14.00;99.90;;;;;;5097539;27;20118;-82
2022/05/22 06:37:36;;;;;;;19.63;4.80;;;14.10;99.90;;;;;;5118197;27;20038;-81
2022/05/22 06:40:03;;;;;;;20.25;6.65;;;14.50;99.90;;;;;;5115631;27;20137;-82
2022/05/22 06:42:36;;;;;;;24.02;7.15;;;14.40;99.90;;;;;;5115757;27;20062;-80
2022/05/22 06:45:07;;;;;;;26.83;7.30;;;14.40;99.90;;;;;;5101431;27;20066;-79
2022/05/22 06:47:35;;;;;;;16.98;4.97;;;14.70;99.90;;;;;;5112156;27;20479;-77
2022/05/22 06:50:05;;;;;;;25.48;5.20;;;14.70;99.90;;;;;;5115656;27;21954;-79
2022/05/22 06:52:32;;;;;;;22.08;5.40;;;14.70;99.90;;;;;;5127961;27;20046;-79
2022/05/22 06:54:59;;;;;;;17.08;4.28;;;14.80;99.90;;;;;;5118027;27;20035;-78
2022/05/22 06:57:25;;;;;;;22.83;5.45;;;14.80;99.90;;;;;;5116268;27;20526;-79
2022/05/22 06:59:54;;;;;;;17.60;5.68;;;14.90;99.90;;;;;;5097823;27;20042;-78
2022/05/22 07:02:21;;;;;;;19.73;4.30;;;14.80;99.90;;;;;;5097932;27;20054;-78
2022/05/22 07:04:46;;;;;;;17.17;4.90;;;14.90;99.90;;;;;;5097432;27;20046;-79
2022/05/22 07:07:15;;;;;;;20.42;4.70;;;14.80;99.90;;;;;;5112433;27;20031;-78
2022/05/22 07:09:41;;;;;;;17.65;4.57;;;15.00;99.90;;;;;;5097059;27;20039;-81
2022/05/22 07:12:10;;;;;;;13.02;4.68;;;14.90;99.90;;;;;;5116013;27;20054;-82
2022/05/22 07:14:36;;;;;;;17.17;4.70;;;14.90;99.90;;;;;;5096105;27;20434;-81
2022/05/22 07:17:04;;;;;;;21.77;4.70;;;15.00;99.90;;;;;;5102585;27;20042;-79
2022/05/22 07:19:34;;;;;;;22.13;4.05;;;15.00;99.90;;;;;;5110748;27;20042;-78
2022/05/22 07:22:06;;;;;;;16.02;4.57;;;15.00;99.90;;;;;;5113144;27;20054;-80
2022/05/22 07:24:33;;;;;;;20.23;4.75;;;14.80;99.90;;;;;;5111650;27;20043;-79
2022/05/22 07:27:00;;;;;;;12.55;3.90;;;14.90;99.90;;;;;;5103350;27;20078;-82
2022/05/22 07:29:29;;;;;;;42.83;5.22;;;14.90;99.90;;;;;;5120168;27;20042;-81
2022/05/22 07:31:56;;;;;;;20.48;3.92;;;15.00;99.90;;;;;;5118303;27;20122;-84
2022/05/22 07:34:24;;;;;;;16.17;3.17;;;15.20;99.90;;;;;;5113429;27;20466;-83
2022/05/22 07:36:59;;;;;;;19.58;3.97;;;15.30;99.90;;;;;;5097994;27;20533;-79
2022/05/22 07:39:26;;;;;;;16.27;3.63;;;15.10;99.90;;;;;;5117884;27;20334;-81
2022/05/22 07:41:52;;;;;;;17.63;3.70;;;15.20;99.90;;;;;;5111388;27;20481;-80
2022/05/22 07:44:18;;;;;;;18.15;3.85;;;15.30;99.90;;;;;;5126955;27;20095;-80
2022/05/22 07:46:45;;;;;;;16.95;3.22;;;15.50;99.90;;;;;;5107337;27;20110;-78
2022/05/22 07:50:16;;;;;;;14.35;3.17;;;15.70;99.90;;;;;;5099141;27;20031;-77
2022/05/22 07:51:56;;;;;;;13.63;3.15;;;15.80;99.90;;;;;;5114807;27;20141;-75
2022/05/22 07:54:23;;;;;;;14.65;3.15;;;15.80;99.90;;;;;;5097734;27;20035;-75
2022/05/22 07:56:48;;;;;;;15.43;2.90;;;15.90;99.90;;;;;;5118781;27;20130;-78
2022/05/22 07:59:14;;;;;;;13.93;3.22;;;16.20;99.90;;;;;;5100301;27;20121;-77
2022/05/22 08:01:45;;;;;;;16.17;3.90;;;16.30;99.90;;;;;;5114934;27;20122;-77
2022/05/22 08:04:10;;;;;;;14.85;3.50;;;16.50;99.90;;;;;;5124064;27;20050;-76
2022/05/22 08:06:36;;;;;;;14.27;3.28;;;16.30;99.90;;;;;;5119848;27;20087;-78
2022/05/22 08:09:01;;;;;;;24.98;3.58;;;16.20;99.90;;;;;;5122198;27;20047;-78
2022/05/22 08:11:28;;;;;;;16.70;3.15;;;16.30;99.90;;;;;;5120215;27;20442;-78
2022/05/22 08:13:54;;;;;;;15.57;2.60;;;16.30;99.90;;;;;;5115090;27;20047;-78
2022/05/22 08:16:19;;;;;;;11.05;2.58;;;16.60;99.90;;;;;;5107874;27;20065;-76
2022/05/22 08:19:03;;;;;;;9.30;2.53;;;16.70;99.90;;;;;;5126509;27;20042;-76
2022/05/22 08:21:29;;;;;;;10.55;2.70;;;16.70;99.90;;;;;;5093336;27;20050;-79
2022/05/22 08:23:55;;;;;;;15.20;2.97;;;16.80;99.90;;;;;;5107288;27;20038;-77
2022/05/22 08:26:21;;;;;;;44.38;4.35;;;16.90;99.90;;;;;;5119545;27;20031;-77
2022/05/22 08:28:46;;;;;;;14.18;2.72;;;17.00;99.90;;;;;;5117518;27;20061;-74
2022/05/22 08:31:12;;;;;;;10.38;2.53;;;17.10;99.90;;;;;;5116232;27;20118;-73
2022/05/22 08:33:38;;;;;;;11.10;2.35;;;17.10;99.90;;;;;;5115498;27;20096;-73
2022/05/22 08:36:04;;;;;;;12.10;2.70;;;16.90;99.90;;;;;;5113804;27;20043;-73
2022/05/22 08:38:30;;;;;;;13.63;3.00;;;17.00;99.90;;;;;;5095238;27;20077;-74
2022/05/22 08:41:20;;;;;;;9.43;2.28;;;17.10;99.90;;;;;;5099556;28;20442;-73
2022/05/22 08:43:56;;;;;;;10.52;2.30;;;17.30;99.90;;;;;;5099202;28;20039;-74
2022/05/22 08:46:48;;;;;;;11.20;2.70;;;17.00;99.90;;;;;;5113529;27;20050;-74
2022/05/22 08:49:44;;;;;;;9.10;2.20;;;17.00;99.90;;;;;;5113757;28;20031;-74
2022/05/22 08:52:28;;;;;;;13.85;2.63;;;17.30;99.90;;;;;;5114508;28;20039;-74
2022/05/22 08:55:18;;;;;;;10.83;2.43;;;17.40;99.90;;;;;;5120229;27;20049;-74
2022/05/22 09:01:06;;;;;;;11.95;2.40;;;17.40;99.90;;;;;;5049651;28;20052;-73
2022/05/22 09:04:06;;;;;;;15.98;3.05;;;17.60;99.90;;;;;;5039023;28;20128;-73
2022/05/22 09:06:43;;;;;;;19.35;2.47;;;17.40;99.90;;;;;;5050759;28;20155;-73
2022/05/22 09:09:08;;;;;;;6.43;1.90;;;17.60;99.90;;;;;;5066963;28;20053;-73
2022/05/22 09:12:03;;;;;;;15.88;2.55;;;17.70;99.90;;;;;;5049727;28;20109;-73
2022/05/22 09:14:42;;;;;;;11.18;2.00;;;18.10;99.90;;;;;;5035911;28;20036;-73
2022/05/22 09:17:23;;;;;;;10.43;2.00;;;18.00;99.90;;;;;;5034516;28;20041;-74
2022/05/22 09:20:00;;;;;;;12.65;2.40;;;18.10;99.90;;;;;;5051554;28;20117;-74
2022/05/22 09:22:43;;;;;;;8.38;2.10;;;18.50;99.90;;;;;;5033160;28;20056;-74
2022/05/22 09:25:09;;;;;;;9.07;2.15;;;18.60;99.90;;;;;;5049929;28;21055;-74
2022/05/22 09:27:42;;;;;;;11.18;2.40;;;18.90;99.90;;;;;;5046649;28;20132;-74
2022/05/22 09:30:38;;;;;;;17.23;2.45;;;18.80;99.90;;;;;;5041196;28;20076;-74
2022/05/22 09:33:28;;;;;;;7.85;1.52;;;19.10;99.90;;;;;;5032498;28;20040;-79
2022/05/22 09:36:28;;;;;;;10.77;2.15;;;18.90;99.90;;;;;;5121977;27;20051;-79
2022/05/22 09:38:57;;;;;;;12.35;2.15;;;18.40;99.90;;;;;;5039852;28;20143;-76
2022/05/22 09:41:41;;;;;;;9.73;1.92;;;18.50;99.90;;;;;;5045530;28;20509;-75
2022/05/22 09:44:33;;;;;;;7.75;1.90;;;18.30;99.90;;;;;;5034571;28;20036;-75
2022/05/22 09:47:23;;;;;;;11.63;2.22;;;18.80;99.90;;;;;;5010735;28;20123;-78
2022/05/22 09:50:03;;;;;;;12.85;2.45;;;19.10;99.90;;;;;;5064624;28;20048;-77
2022/05/22 09:52:48;;;;;;;9.15;1.90;;;19.50;99.90;;;;;;5024304;28;20071;-78
2022/05/22 09:55:23;;;;;;;12.40;2.53;;;19.90;99.90;;;;;;5035389;28;20053;-78
2022/05/22 09:58:03;;;;;;;8.68;1.90;;;19.80;99.90;;;;;;5035213;28;20056;-78
2022/05/22 10:00:38;;;;;;;7.30;1.90;;;20.00;99.90;;;;;;5044414;28;20059;-78
2022/05/22 10:03:10;;;;;;;9.82;1.98;;;20.00;99.90;;;;;;5026405;28;20258;-78
2022/05/22 10:05:57;;;;;;;8.25;1.92;;;20.60;99.90;;;;;;5028575;28;20046;-79
2022/05/22 10:08:22;;;;;;;8.23;2.00;;;20.80;99.90;;;;;;5043812;28;20064;-78
2022/05/22 10:11:00;;;;;;;7.57;1.77;;;21.10;99.90;;;;;;5018526;28;20048;-78
2022/05/22 10:13:50;;;;;;;7.32;1.58;;;21.20;99.90;;;;;;5030453;28;20127;-79
2022/05/22 10:16:41;;;;;;;8.98;1.92;;;21.30;99.90;;;;;;5105736;27;20525;-79
2022/05/22 10:19:19;;;;;;;10.00;1.95;;;21.70;99.90;;;;;;5118344;27;20051;-79
2022/05/22 10:22:09;;;;;;;8.82;1.95;;;22.00;99.90;;;;;;5095518;28;20040;-79
2022/05/22 10:24:59;;;;;;;7.53;2.03;;;21.60;99.90;;;;;;5101490;27;20027;-78
2022/05/22 10:27:37;;;;;;;9.13;2.15;;;21.60;99.90;;;;;;5115726;27;20039;-78
2022/05/22 10:30:09;;;;;;;8.55;2.22;;;21.20;99.90;;;;;;5116891;27;20031;-78
2022/05/22 10:33:06;;;;;;;10.18;2.10;;;20.90;99.90;;;;;;5094273;28;20055;-78
2022/05/22 10:35:47;;;;;;;7.68;2.15;;;20.90;99.90;;;;;;5112442;28;20130;-79
2022/05/22 10:38:25;;;;;;;6.35;2.00;;;20.90;99.90;;;;;;5094553;28;20481;-79
2022/05/22 10:43:45;;;;;;;6.55;1.70;;;20.60;99.90;;;;;;5112845;27;20104;-78
2022/05/22 10:46:11;;;;;;;5.32;1.40;;;20.70;99.90;;;;;;5099662;27;20097;-79
2022/05/22 10:48:54;;;;;;;9.13;1.90;;;20.80;99.90;;;;;;5115661;27;20039;-79
2022/05/22 10:51:26;;;;;;;9.73;1.70;;;21.10;99.90;;;;;;5099554;27;20096;-78
2022/05/22 10:53:57;;;;;;;5.55;1.80;;;21.10;99.90;;;;;;5094761;28;20117;-79
2022/05/22 10:56:29;;;;;;;8.70;2.00;;;21.60;99.90;;;;;;5112399;28;20126;-79
2022/05/22 10:59:07;;;;;;;5.25;1.60;;;22.00;99.90;;;;;;5106011;27;20126;-79
2022/05/22 11:01:36;;;;;;;6.72;1.70;;;21.90;99.90;;;;;;5110671;28;20135;-79
2022/05/22 11:08:31;;;;;;;8.50;1.95;;;21.60;99.90;;;;;;5127161;27;20034;-79
2022/05/22 11:11:10;;;;;;;7.85;1.80;;;21.30;99.90;;;;;;5112895;27;20116;-77
2022/05/22 11:13:35;;;;;;;8.68;1.75;;;21.50;99.90;;;;;;5113768;27;20117;-79
2022/05/22 11:16:30;;;;;;;9.00;2.05;;;21.90;99.90;;;;;;5113974;27;20109;-79
2022/05/22 11:19:05;;;;;;;5.22;1.40;;;22.20;99.90;;;;;;5111721;28;20054;-79
2022/05/22 11:21:54;;;;;;;7.93;1.88;;;22.60;99.90;;;;;;5111649;28;20501;-79
2022/05/22 11:24:20;;;;;;;7.25;1.40;;;23.30;99.00;;;;;;5044389;28;20144;-79
2022/05/22 11:26:59;;;;;;;7.13;1.60;;;23.50;99.90;;;;;;5035350;28;20452;-79
2022/05/22 11:29:46;;;;;;;9.50;1.80;;;24.10;99.90;;;;;;5052036;28;20083;-79
2022/05/22 11:32:30;;;;;;;6.63;1.50;;;24.00;97.20;;;;;;5020041;28;20134;-79
2022/05/22 11:35:20;;;;;;;8.35;1.77;;;24.50;99.90;;;;;;5036691;28;20120;-79
2022/05/22 11:38:07;;;;;;;5.10;1.45;;;24.80;98.90;;;;;;5036034;28;20127;-79
2022/05/22 11:40:39;;;;;;;5.13;1.60;;;24.90;98.00;;;;;;5048336;28;20196;-79
2022/05/22 11:43:31;;;;;;;3.92;1.30;;;25.00;98.40;;;;;;5023207;28;20131;-79
2022/05/22 11:45:59;;;;;;;5.32;1.63;;;25.50;97.10;;;;;;5028627;28;20333;-80
2022/05/22 11:48:58;;;;;;;6.72;1.85;;;25.70;96.40;;;;;;5042761;28;20045;-80
2022/05/22 11:51:32;;;;;;;4.07;1.30;;;25.90;95.60;;;;;;5047429;28;20036;-79
2022/05/22 11:54:07;;;;;;;5.97;1.70;;;25.00;93.40;;;;;;5020057;28;20041;-78
2022/05/22 11:56:51;;;;;;;6.43;1.65;;;25.00;93.30;;;;;;5035434;28;20342;-77
2022/05/22 11:59:24;;;;;;;;;;;24.60;93.40;;;;;;5042950;28;20078;-77
2022/05/22 12:02:16;;;;;;;5.15;1.52;;;24.00;95.20;;;;;;5101970;27;20358;-77
2022/05/22 12:04:59;;;;;;;7.00;1.63;;;24.40;94.70;;;;;;5123075;27;20150;-78
2022/05/22 12:07:41;;;;;;;8.30;1.55;;;24.40;94.40;;;;;;5116777;27;20063;-78
2022/05/22 12:10:20;;;;;;;5.13;1.50;;;24.50;94.20;;;;;;5101207;27;20134;-78
2022/05/22 12:12:59;;;;;;;6.97;1.67;;;24.80;93.60;;;;;;5117834;27;20050;-78
2022/05/22 12:15:31;;;;;;;5.65;1.58;;;24.60;93.50;;;;;;5115058;27;20108;-79
2022/05/22 12:18:09;;;;;;;6.65;1.48;;;23.70;93.80;;;;;;5112812;27;20062;-78
2022/05/22 12:20:46;;;;;;;5.65;1.35;;;23.70;94.60;;;;;;5116387;27;20039;-79
2022/05/22 12:23:15;;;;;;;5.32;1.48;;;23.60;95.50;;;;;;5092554;28;20039;-77
2022/05/22 12:25:49;;;;;;;5.05;1.40;;;24.30;96.00;;;;;;5111407;27;20048;-77
2022/05/22 12:28:36;;;;;;;7.05;2.13;;;24.60;94.50;;;;;;5102451;27;20039;-77
2022/05/22 12:31:08;;;;;;;5.55;1.65;;;25.30;94.00;;;;;;5099305;27;20047;-78
2022/05/22 12:33:36;;;;;;;4.90;1.63;;;24.90;93.80;;;;;;5098654;28;20088;-77
2022/05/22 12:36:03;;;;;;;6.65;1.73;;;24.70;93.40;;;;;;5118355;27;20090;-76
2022/05/22 12:38:29;;;;;;;6.05;1.73;;;24.20;93.30;;;;;;5138354;27;20035;-78
2022/05/22 12:41:10;;;;;;;4.65;1.48;;;24.00;94.00;;;;;;5131062;27;20134;-78
2022/05/22 12:43:37;;;;;;;6.18;1.60;;;23.50;93.70;;;;;;5124527;27;20423;-80
2022/05/22 12:46:05;;;;;;;6.38;1.60;;;23.30;94.40;;;;;;5109619;27;20184;-79
2022/05/22 12:48:33;;;;;;;5.93;1.92;;;23.00;94.60;;;;;;5112327;27;20043;-77
2022/05/22 12:51:15;;;;;;;8.50;1.83;;;23.10;94.90;;;;;;5105617;28;20062;-77
2022/05/22 12:53:47;;;;;;;8.45;1.70;;;23.30;95.10;;;;;;5106434;28;20036;-79
2022/05/22 12:56:18;;;;;;;6.63;1.60;;;23.30;94.50;;;;;;5107413;27;20131;-79
2022/05/22 12:58:50;;;;;;;7.32;1.55;;;23.40;95.70;;;;;;5101786;28;20067;-80
2022/05/22 13:01:27;;;;;;;7.72;1.30;;;23.30;95.70;;;;;;5120370;27;20111;-78
2022/05/22 13:03:57;;;;;;;7.18;1.40;;;23.30;95.40;;;;;;5119898;27;20062;-78
2022/05/22 13:06:36;;;;;;;5.38;1.60;;;23.40;95.90;;;;;;5121785;27;20104;-77
2022/05/22 13:09:07;;;;;;;4.35;1.30;;;23.10;95.50;;;;;;5125265;27;20077;-77
2022/05/22 13:11:45;;;;;;;7.53;1.77;;;23.20;95.50;;;;;;5100360;27;20043;-78
2022/05/22 13:14:23;;;;;;;7.05;1.70;;;23.10;95.00;;;;;;5096063;27;20050;-78
2022/05/22 13:16:51;;;;;;;11.18;1.98;;;22.90;95.20;;;;;;5105287;27;20474;-78
2022/05/22 13:19:45;;;;;;;5.75;1.33;;;23.00;95.60;;;;;;5126292;27;20043;-78
2022/05/22 13:22:12;;;;;;;4.90;1.58;;;22.90;95.80;;;;;;5125420;27;20043;-79
2022/05/22 13:24:49;;;;;;;3.67;1.45;;;23.30;96.90;;;;;;5127718;27;20043;-78